createdAt,value
2016-04-16T00:00:07.725Z,85.32
2016-04-16T00:00:17.743Z,84.65
2016-04-16T00:00:27.743Z,84.84
2016-04-16T00:00:37.743Z,84.84
2016-04-16T00:00:47.743Z,84.75
2016-04-16T00:00:57.758Z,84.6
2016-04-16T00:01:07.758Z,84.56
2016-04-16T00:01:17.761Z,84.65
2016-04-16T00:01:27.777Z,84.79
2016-04-16T00:01:37.777Z,84.75
2016-04-16T00:01:47.777Z,85.13
2016-04-16T00:01:57.777Z,84.98
2016-04-16T00:02:07.777Z,84.84
2016-04-16T00:02:17.796Z,85.08
2016-04-16T00:02:27.796Z,84.94
2016-04-16T00:02:37.796Z,84.94
2016-04-16T00:02:47.811Z,84.08
2016-04-16T00:02:57.811Z,84.5
2016-04-16T00:03:07.811Z,84.17
2016-04-16T00:03:17.814Z,84.46
2016-04-16T00:03:27.830Z,84.36
2016-04-16T00:03:37.830Z,84.36
2016-04-16T00:03:47.830Z,84.17
2016-04-16T00:03:57.845Z,83.98
2016-04-16T00:04:07.845Z,84.36
2016-04-16T00:04:17.848Z,84.08
2016-04-16T00:04:27.848Z,83.7
2016-04-16T00:04:37.864Z,83.7
2016-04-16T00:04:47.708Z,83.65
2016-04-16T00:04:57.864Z,83.7
2016-04-16T00:05:07.864Z,83.89
2016-04-16T00:05:17.882Z,83.51
2016-04-16T00:05:27.882Z,83.45
2016-04-16T00:05:37.882Z,83.32
2016-04-16T00:05:47.897Z,83.41
2016-04-16T00:05:57.897Z,83.89
2016-04-16T00:06:07.897Z,83.41
2016-04-16T00:06:17.916Z,83.41
2016-04-16T00:06:27.916Z,83.32
2016-04-16T00:06:37.916Z,83.32
2016-04-16T00:06:47.916Z,83.22
2016-04-16T00:06:58.166Z,83.41
2016-04-16T00:07:08.025Z,83.41
2016-04-16T00:07:17.949Z,83.98
2016-04-16T00:07:27.996Z,83.89
2016-04-16T00:07:37.949Z,83.89
2016-04-16T00:07:47.949Z,83.89
2016-04-16T00:07:57.965Z,83.41
2016-04-16T00:08:07.965Z,83.22
2016-04-16T00:08:17.968Z,83.32
2016-04-16T00:08:27.968Z,82.93
2016-04-16T00:08:37.968Z,83.13
2016-04-16T00:08:47.983Z,82.93
2016-04-16T00:08:57.999Z,83.41
2016-04-16T00:09:07.983Z,83.41
2016-04-16T00:09:18.002Z,83.03
2016-04-16T00:09:28.002Z,83.41
2016-04-16T00:09:38.002Z,83.03
2016-04-16T00:09:48.002Z,82.65
2016-04-16T00:09:58.018Z,82.65
2016-04-16T00:10:08.018Z,82.84
2016-04-16T00:10:18.020Z,82.98
2016-04-16T00:10:28.035Z,82.93
2016-04-16T00:10:38.035Z,82.18
2016-04-16T00:10:48.035Z,82.6
2016-04-16T00:10:58.035Z,82.6
2016-04-16T00:11:08.051Z,82.31
2016-04-16T00:11:18.054Z,82.31
2016-04-16T00:11:28.054Z,82.21
2016-04-16T00:11:38.070Z,82.31
2016-04-16T00:11:48.070Z,82.18
2016-04-16T00:11:58.085Z,82.18
2016-04-16T00:12:08.070Z,82.41
2016-04-16T00:12:18.087Z,82.21
2016-04-16T00:12:28.087Z,82.21
2016-04-16T00:12:38.087Z,82.41
2016-04-16T00:12:48.087Z,82.41
2016-04-16T00:12:58.103Z,82.5
2016-04-16T00:13:08.103Z,82.31
2016-04-16T00:13:18.106Z,82.18
2016-04-16T00:13:28.121Z,81.98
2016-04-16T00:13:38.137Z,81.79
2016-04-16T00:13:48.121Z,82.12
2016-04-16T00:13:58.121Z,81.84
2016-04-16T00:14:08.137Z,81.84
2016-04-16T00:14:18.140Z,81.84
2016-04-16T00:14:28.156Z,81.7
2016-04-16T00:14:38.156Z,81.98
2016-04-16T00:14:48.156Z,81.74
2016-04-16T00:14:58.156Z,81.93
2016-04-16T00:15:08.156Z,81.79
2016-04-16T00:15:18.174Z,81.7
2016-04-16T00:15:28.174Z,81.7
2016-04-16T00:15:38.174Z,81.51
2016-04-16T00:15:48.190Z,81.79
2016-04-16T00:15:58.190Z,81.79
2016-04-16T00:16:08.190Z,81.79
2016-04-16T00:16:18.193Z,81.79
2016-04-16T00:16:28.193Z,81.98
2016-04-16T00:16:38.209Z,81.6
2016-04-16T00:16:48.209Z,81.79
2016-04-16T00:16:58.224Z,81.79
2016-04-16T00:17:08.224Z,81.6
2016-04-16T00:17:18.227Z,81.79
2016-04-16T00:17:28.227Z,81.79
2016-04-16T00:17:38.243Z,81.7
2016-04-16T00:17:48.243Z,82.03
2016-04-16T00:17:58.243Z,81.7
2016-04-16T00:18:08.258Z,81.89
2016-04-16T00:18:18.260Z,81.7
2016-04-16T00:18:28.260Z,81.79
2016-04-16T00:18:38.260Z,81.79
2016-04-16T00:18:48.276Z,82.18
2016-04-16T00:18:58.276Z,81.7
2016-04-16T00:19:08.276Z,81.89
2016-04-16T00:19:18.279Z,81.79
2016-04-16T00:19:28.295Z,81.89
2016-04-16T00:19:38.295Z,81.79
2016-04-16T00:19:48.326Z,81.89
2016-04-16T00:20:03.873Z,81.89
2016-04-16T00:20:08.451Z,81.6
2016-04-16T00:20:18.422Z,81.6
2016-04-16T00:20:28.422Z,81.7
2016-04-16T00:20:38.437Z,81.89
2016-04-16T00:20:48.437Z,81.6
2016-04-16T00:20:58.437Z,81.6
2016-04-16T00:21:08.453Z,81.6
2016-04-16T00:21:18.456Z,82.08
2016-04-16T00:21:28.456Z,81.79
2016-04-16T00:21:38.456Z,81.7
2016-04-16T00:21:48.472Z,81.89
2016-04-16T00:21:58.472Z,81.7
2016-04-16T00:22:08.472Z,81.89
2016-04-16T00:22:18.475Z,81.89
2016-04-16T00:22:28.490Z,82.12
2016-04-16T00:22:38.490Z,81.98
2016-04-16T00:22:48.490Z,81.79
2016-04-16T00:22:58.506Z,81.7
2016-04-16T00:23:08.506Z,81.7
2016-04-16T00:23:18.509Z,82.08
2016-04-16T00:23:28.524Z,81.98
2016-04-16T00:23:38.524Z,82.18
2016-04-16T00:23:48.524Z,81.98
2016-04-16T00:23:58.540Z,82.03
2016-04-16T00:24:08.524Z,82.08
2016-04-16T00:24:18.543Z,81.79
2016-04-16T00:24:28.543Z,82.18
2016-04-16T00:24:38.559Z,82.08
2016-04-16T00:24:48.559Z,82.18
2016-04-16T00:24:58.559Z,81.98
2016-04-16T00:25:08.559Z,81.7
2016-04-16T00:25:18.576Z,81.89
2016-04-16T00:25:28.576Z,82.18
2016-04-16T00:25:38.576Z,81.98
2016-04-16T00:25:48.576Z,82.08
2016-04-16T00:25:58.592Z,82.18
2016-04-16T00:26:08.592Z,81.79
2016-04-16T00:26:18.595Z,81.89
2016-04-16T00:26:28.595Z,81.46
2016-04-16T00:26:38.611Z,81.46
2016-04-16T00:26:48.611Z,81.6
2016-04-16T00:26:58.611Z,81.84
2016-04-16T00:27:08.626Z,81.89
2016-04-16T00:27:18.628Z,81.65
2016-04-16T00:27:28.628Z,81.6
2016-04-16T00:27:38.644Z,81.6
2016-04-16T00:27:48.644Z,81.79
2016-04-16T00:27:58.644Z,81.74
2016-04-16T00:28:08.644Z,81.7
2016-04-16T00:28:18.647Z,81.41
2016-04-16T00:28:28.662Z,81.46
2016-04-16T00:28:38.662Z,81.55
2016-04-16T00:28:48.662Z,81.32
2016-04-16T00:28:58.678Z,81.51
2016-04-16T00:29:08.678Z,81.65
2016-04-16T00:29:18.681Z,81.74
2016-04-16T00:29:28.681Z,81.84
2016-04-16T00:29:38.697Z,81.6
2016-04-16T00:29:47.931Z,81.41
2016-04-16T00:29:58.697Z,81.32
2016-04-16T00:30:08.712Z,81.79
2016-04-16T00:30:18.714Z,81.36
2016-04-16T00:30:28.730Z,81.65
2016-04-16T00:30:38.730Z,81.55
2016-04-16T00:30:48.730Z,81.46
2016-04-16T00:30:58.730Z,81.51
2016-04-16T00:31:08.730Z,81.98
2016-04-16T00:31:18.749Z,81.98
2016-04-16T00:31:28.749Z,81.74
2016-04-16T00:31:38.749Z,82.03
2016-04-16T00:31:48.749Z,82.18
2016-04-16T00:31:58.749Z,81.89
2016-04-16T00:32:08.764Z,81.89
2016-04-16T00:32:18.766Z,81.7
2016-04-16T00:32:28.766Z,81.79
2016-04-16T00:32:38.782Z,81.7
2016-04-16T00:32:48.782Z,81.7
2016-04-16T00:32:58.782Z,81.7
2016-04-16T00:33:08.797Z,81.79
2016-04-16T00:33:18.800Z,81.79
2016-04-16T00:33:28.800Z,81.6
2016-04-16T00:33:38.816Z,81.6
2016-04-16T00:33:48.816Z,81.7
2016-04-16T00:33:58.816Z,81.7
2016-04-16T00:34:08.816Z,81.79
2016-04-16T00:34:18.819Z,81.79
2016-04-16T00:34:28.835Z,81.79
2016-04-16T00:34:38.835Z,81.6
2016-04-16T00:34:48.850Z,81.79
2016-04-16T00:34:58.866Z,81.79
2016-04-16T00:35:08.850Z,82.08
2016-04-16T00:35:18.853Z,81.79
2016-04-16T00:35:28.853Z,81.7
2016-04-16T00:35:38.869Z,81.79
2016-04-16T00:35:48.869Z,81.79
2016-04-16T00:36:05.291Z,81.79
2016-04-16T00:36:10.135Z,81.79
2016-04-16T00:36:20.122Z,81.7
2016-04-16T00:36:30.153Z,82.08
2016-04-16T00:36:40.138Z,81.89
2016-04-16T00:36:50.138Z,81.98
2016-04-16T00:37:00.138Z,81.7
2016-04-16T00:37:10.153Z,81.79
2016-04-16T00:37:20.155Z,81.89
2016-04-16T00:37:30.155Z,82.08
2016-04-16T00:37:40.171Z,81.98
2016-04-16T00:37:50.155Z,81.98
2016-04-16T00:38:00.155Z,82.46
2016-04-16T00:38:10.171Z,82.46
2016-04-16T00:38:20.174Z,82.46
2016-04-16T00:38:30.174Z,82.08
2016-04-16T00:38:40.189Z,82.46
2016-04-16T00:38:50.189Z,82.37
2016-04-16T00:39:00.189Z,82.46
2016-04-16T00:39:10.189Z,82.37
2016-04-16T00:39:20.207Z,82.46
2016-04-16T00:39:30.254Z,82.37
2016-04-16T00:39:40.223Z,82.37
2016-04-16T00:39:50.223Z,82.18
2016-04-16T00:40:00.223Z,82.18
2016-04-16T00:40:10.223Z,82.27
2016-04-16T00:40:20.226Z,82.18
2016-04-16T00:40:30.241Z,82.08
2016-04-16T00:40:40.241Z,82.37
2016-04-16T00:40:50.241Z,82.27
2016-04-16T00:41:00.241Z,82.18
2016-04-16T00:41:10.257Z,82.46
2016-04-16T00:41:20.260Z,82.27
2016-04-16T00:41:30.260Z,82.46
2016-04-16T00:41:40.276Z,83.03
2016-04-16T00:41:50.276Z,82.93
2016-04-16T00:42:00.276Z,82.84
2016-04-16T00:42:10.291Z,82.75
2016-04-16T00:42:20.293Z,82.84
2016-04-16T00:42:30.293Z,82.84
2016-04-16T00:42:40.293Z,82.93
2016-04-16T00:42:50.309Z,82.84
2016-04-16T00:43:00.309Z,83.03
2016-04-16T00:43:10.309Z,82.75
2016-04-16T00:43:20.312Z,82.84
2016-04-16T00:43:30.327Z,82.65
2016-04-16T00:43:40.327Z,82.56
2016-04-16T00:43:50.327Z,82.65
2016-04-16T00:44:00.343Z,82.65
2016-04-16T00:44:10.343Z,82.56
2016-04-16T00:44:20.345Z,82.56
2016-04-16T00:44:30.345Z,82.56
2016-04-16T00:44:40.361Z,82.93
2016-04-16T00:44:50.376Z,82.65
2016-04-16T00:45:00.361Z,82.65
2016-04-16T00:45:10.376Z,82.75
2016-04-16T00:45:20.379Z,82.46
2016-04-16T00:45:30.379Z,82.84
2016-04-16T00:45:40.379Z,82.84
2016-04-16T00:45:50.395Z,82.75
2016-04-16T00:46:00.395Z,82.56
2016-04-16T00:46:10.411Z,82.75
2016-04-16T00:46:20.398Z,82.75
2016-04-16T00:46:30.414Z,82.75
2016-04-16T00:46:40.414Z,82.56
2016-04-16T00:46:50.429Z,82.75
2016-04-16T00:47:00.429Z,83.13
2016-04-16T00:47:10.429Z,82.93
2016-04-16T00:47:20.432Z,82.84
2016-04-16T00:47:30.432Z,82.93
2016-04-16T00:47:40.448Z,82.84
2016-04-16T00:47:50.448Z,83.13
2016-04-16T00:48:00.292Z,82.93
2016-04-16T00:48:10.463Z,82.93
2016-04-16T00:48:20.466Z,82.84
2016-04-16T00:48:30.466Z,82.75
2016-04-16T00:48:40.482Z,82.65
2016-04-16T00:48:50.482Z,82.65
2016-04-16T00:49:00.482Z,82.75
2016-04-16T00:49:10.482Z,83.03
2016-04-16T00:49:20.485Z,82.75
2016-04-16T00:49:30.501Z,82.46
2016-04-16T00:49:40.501Z,82.75
2016-04-16T00:49:50.516Z,82.65
2016-04-16T00:50:00.657Z,82.65
2016-04-16T00:50:10.641Z,82.75
2016-04-16T00:50:20.518Z,83.03
2016-04-16T00:50:30.518Z,83.03
2016-04-16T00:50:40.534Z,82.65
2016-04-16T00:50:50.534Z,82.56
2016-04-16T00:51:00.534Z,82.75
2016-04-16T00:51:09.784Z,82.46
2016-04-16T00:51:20.553Z,82.65
2016-04-16T00:51:30.553Z,82.56
2016-04-16T00:51:40.553Z,82.75
2016-04-16T00:51:50.568Z,82.65
2016-04-16T00:52:00.568Z,82.65
2016-04-16T00:52:10.568Z,82.75
2016-04-16T00:52:20.586Z,82.75
2016-04-16T00:52:30.586Z,83.03
2016-04-16T00:52:40.586Z,82.84
2016-04-16T00:52:50.601Z,82.65
2016-04-16T00:53:00.601Z,82.65
2016-04-16T00:53:10.601Z,82.65
2016-04-16T00:53:20.605Z,82.56
2016-04-16T00:53:30.621Z,83.03
2016-04-16T00:53:40.621Z,82.93
2016-04-16T00:53:50.621Z,82.93
2016-04-16T00:54:00.621Z,83.03
2016-04-16T00:54:10.637Z,83.03
2016-04-16T00:54:20.639Z,83.03
2016-04-16T00:54:30.639Z,82.93
2016-04-16T00:54:40.639Z,82.84
2016-04-16T00:54:50.654Z,82.93
2016-04-16T00:55:00.654Z,82.75
2016-04-16T00:55:10.654Z,82.75
2016-04-16T00:55:20.657Z,82.93
2016-04-16T00:55:30.673Z,82.93
2016-04-16T00:55:40.689Z,82.84
2016-04-16T00:55:50.689Z,82.93
2016-04-16T00:56:00.689Z,82.75
2016-04-16T00:56:10.689Z,82.84
2016-04-16T00:56:20.692Z,82.98
2016-04-16T00:56:30.692Z,82.27
2016-04-16T00:56:40.707Z,82.93
2016-04-16T00:56:50.723Z,83.03
2016-04-16T00:57:00.707Z,82.93
2016-04-16T00:57:10.707Z,82.93
2016-04-16T00:57:20.725Z,82.08
2016-04-16T00:57:30.725Z,83.03
2016-04-16T00:57:40.740Z,82.93
2016-04-16T00:57:50.740Z,82.84
2016-04-16T00:58:00.740Z,82.84
2016-04-16T00:58:10.740Z,83.03
2016-04-16T00:58:20.743Z,82.65
2016-04-16T00:58:30.759Z,82.56
2016-04-16T00:58:40.759Z,82.65
2016-04-16T00:58:50.759Z,82.65
2016-04-16T00:59:00.775Z,82.65
2016-04-16T00:59:10.775Z,83.13
2016-04-16T00:59:20.777Z,82.93
2016-04-16T00:59:30.792Z,82.84
2016-04-16T00:59:40.792Z,83.22
2016-04-16T00:59:50.792Z,83.13
2016-04-16T01:00:00.792Z,83.32
2016-04-16T01:00:10.792Z,83.13
2016-04-16T01:00:20.811Z,83.22
2016-04-16T01:00:30.811Z,83.22
2016-04-16T01:00:40.811Z,83.32
2016-04-16T01:00:50.827Z,83.22
2016-04-16T01:01:00.827Z,83.41
2016-04-16T01:01:10.827Z,83.22
2016-04-16T01:01:20.844Z,83.22
2016-04-16T01:01:30.844Z,82.84
2016-04-16T01:01:40.860Z,83.22
2016-04-16T01:01:50.860Z,83.03
2016-04-16T01:02:00.860Z,83.03
2016-04-16T01:02:10.860Z,83.03
2016-04-16T01:02:20.878Z,82.93
2016-04-16T01:02:30.863Z,83.13
2016-04-16T01:02:40.878Z,83.03
2016-04-16T01:02:50.878Z,82.93
2016-04-16T01:03:00.878Z,83.13
2016-04-16T01:03:10.878Z,83.03
2016-04-16T01:03:20.913Z,83.13
2016-04-16T01:03:30.897Z,83.13
2016-04-16T01:03:40.897Z,83.22
2016-04-16T01:03:50.913Z,83.13
2016-04-16T01:04:00.913Z,82.93
2016-04-16T01:04:19.838Z,83.03
2016-04-16T01:04:29.791Z,83.22
2016-04-16T01:04:39.791Z,82.93
2016-04-16T01:04:49.806Z,83.22
2016-04-16T01:04:59.884Z,83.13
2016-04-16T01:05:09.947Z,83.13
2016-04-16T01:05:19.809Z,83.22
2016-04-16T01:05:29.825Z,83.22
2016-04-16T01:05:39.825Z,83.41
2016-04-16T01:05:49.669Z,83.41
2016-04-16T01:05:59.841Z,82.93
2016-04-16T01:06:09.841Z,83.32
2016-04-16T01:06:19.843Z,83.22
2016-04-16T01:06:29.858Z,83.41
2016-04-16T01:06:39.858Z,83.22
2016-04-16T01:06:49.858Z,83.22
2016-04-16T01:06:59.858Z,83.03
2016-04-16T01:07:09.874Z,83.22
2016-04-16T01:07:19.877Z,83.13
2016-04-16T01:07:29.877Z,82.93
2016-04-16T01:07:39.892Z,83.13
2016-04-16T01:07:49.892Z,83.13
2016-04-16T01:07:59.892Z,83.13
2016-04-16T01:08:09.892Z,82.93
2016-04-16T01:08:19.910Z,83.03
2016-04-16T01:08:29.910Z,83.03
2016-04-16T01:08:39.910Z,83.17
2016-04-16T01:08:49.910Z,82.98
2016-04-16T01:08:59.926Z,83.13
2016-04-16T01:09:09.926Z,82.98
2016-04-16T01:09:19.929Z,83.17
2016-04-16T01:09:29.929Z,82.98
2016-04-16T01:09:39.944Z,82.98
2016-04-16T01:09:49.944Z,83.17
2016-04-16T01:09:59.944Z,83.03
2016-04-16T01:10:09.960Z,83.07
2016-04-16T01:10:19.963Z,83.36
2016-04-16T01:10:29.963Z,83.45
2016-04-16T01:10:39.979Z,83.17
2016-04-16T01:10:49.979Z,83.13
2016-04-16T01:10:59.979Z,83.36
2016-04-16T01:11:09.979Z,83.55
2016-04-16T01:11:19.996Z,83.26
2016-04-16T01:11:29.996Z,83.55
2016-04-16T01:11:39.996Z,83.55
2016-04-16T01:11:49.996Z,83.26
2016-04-16T01:12:00.012Z,83.26
2016-04-16T01:12:10.012Z,83.26
2016-04-16T01:12:20.015Z,83.07
2016-04-16T01:12:30.030Z,83.17
2016-04-16T01:12:40.030Z,83.22
2016-04-16T01:12:50.030Z,83.22
2016-04-16T01:13:00.030Z,83.22
2016-04-16T01:13:10.046Z,83.03
2016-04-16T01:13:20.064Z,83.03
2016-04-16T01:13:30.064Z,83.17
2016-04-16T01:13:40.064Z,83.07
2016-04-16T01:13:50.064Z,83.17
2016-04-16T01:14:00.064Z,83.13
2016-04-16T01:14:10.064Z,82.98
2016-04-16T01:14:20.083Z,82.98
2016-04-16T01:14:30.083Z,83.26
2016-04-16T01:14:40.083Z,83.36
2016-04-16T01:14:50.083Z,83.17
2016-04-16T01:15:00.099Z,83.13
2016-04-16T01:15:10.099Z,83.17
2016-04-16T01:15:20.101Z,83.03
2016-04-16T01:15:29.351Z,83.17
2016-04-16T01:15:40.117Z,83.17
2016-04-16T01:15:50.117Z,83.17
2016-04-16T01:16:00.117Z,83.17
2016-04-16T01:16:10.132Z,83.07
2016-04-16T01:16:20.135Z,83.17
2016-04-16T01:16:30.135Z,83.17
2016-04-16T01:16:40.135Z,83.07
2016-04-16T01:16:50.151Z,82.98
2016-04-16T01:17:00.151Z,83.07
2016-04-16T01:17:10.151Z,83.45
2016-04-16T01:17:20.168Z,83.17
2016-04-16T01:17:30.168Z,83.45
2016-04-16T01:17:40.168Z,83.45
2016-04-16T01:17:50.168Z,83.26
2016-04-16T01:18:00.184Z,82.75
2016-04-16T01:18:10.184Z,83.26
2016-04-16T01:18:20.187Z,83.26
2016-04-16T01:18:30.187Z,82.79
2016-04-16T01:18:40.203Z,82.75
2016-04-16T01:18:50.203Z,83.07
2016-04-16T01:19:00.218Z,83.17
2016-04-16T01:19:10.218Z,82.98
2016-04-16T01:19:20.221Z,83.13
2016-04-16T01:19:30.221Z,82.79
2016-04-16T01:19:40.221Z,82.79
2016-04-16T01:19:50.237Z,82.79
2016-04-16T01:20:00.143Z,82.84
2016-04-16T01:20:10.456Z,83.22
2016-04-16T01:20:20.255Z,82.69
2016-04-16T01:20:30.255Z,83.17
2016-04-16T01:20:40.255Z,83.32
2016-04-16T01:20:50.255Z,82.98
2016-04-16T01:21:00.270Z,82.79
2016-04-16T01:21:10.270Z,83.26
2016-04-16T01:21:20.290Z,83.22
2016-04-16T01:21:30.290Z,83.36
2016-04-16T01:21:40.290Z,83.22
2016-04-16T01:21:50.290Z,83.22
2016-04-16T01:22:00.290Z,83.13
2016-04-16T01:22:10.321Z,83.22
2016-04-16T01:22:20.307Z,83.32
2016-04-16T01:22:30.307Z,83.07
2016-04-16T01:22:40.323Z,83.13
2016-04-16T01:22:50.323Z,83.13
2016-04-16T01:23:00.323Z,83.13
2016-04-16T01:23:10.323Z,83.13
2016-04-16T01:23:20.342Z,83.13
2016-04-16T01:23:30.342Z,83.26
2016-04-16T01:23:40.342Z,83.26
2016-04-16T01:23:50.342Z,83.22
2016-04-16T01:24:00.357Z,83.55
2016-04-16T01:24:10.357Z,83.26
2016-04-16T01:24:20.359Z,83.36
2016-04-16T01:24:30.359Z,83.55
2016-04-16T01:24:40.375Z,83.32
2016-04-16T01:24:50.375Z,83.55
2016-04-16T01:25:00.375Z,83.17
2016-04-16T01:25:10.391Z,83.45
2016-04-16T01:25:20.394Z,83.41
2016-04-16T01:25:30.394Z,83.51
2016-04-16T01:25:40.394Z,83.26
2016-04-16T01:25:50.409Z,83.13
2016-04-16T01:26:00.409Z,83.17
2016-04-16T01:26:10.409Z,83.07
2016-04-16T01:26:20.427Z,83.17
2016-04-16T01:26:30.427Z,82.98
2016-04-16T01:26:40.458Z,83.45
2016-04-16T01:26:50.442Z,83.17
2016-04-16T01:27:00.442Z,83.26
2016-04-16T01:27:10.442Z,82.79
2016-04-16T01:27:20.445Z,82.98
2016-04-16T01:27:30.461Z,82.89
2016-04-16T01:27:40.461Z,82.79
2016-04-16T01:27:50.461Z,82.89
2016-04-16T01:28:00.461Z,83.07
2016-04-16T01:28:10.477Z,82.79
2016-04-16T01:28:20.480Z,82.69
2016-04-16T01:28:30.480Z,82.69
2016-04-16T01:28:40.480Z,82.69
2016-04-16T01:28:50.495Z,82.6
2016-04-16T01:29:00.495Z,82.69
2016-04-16T01:29:10.495Z,82.69
2016-04-16T01:29:20.498Z,82.6
2016-04-16T01:29:30.514Z,82.69
2016-04-16T01:29:40.530Z,82.79
2016-04-16T01:29:50.514Z,82.89
2016-04-16T01:30:00.530Z,82.69
2016-04-16T01:30:10.530Z,82.89
2016-04-16T01:30:20.532Z,82.79
2016-04-16T01:30:30.547Z,83.17
2016-04-16T01:30:40.547Z,82.41
2016-04-16T01:30:50.547Z,82.5
2016-04-16T01:31:00.563Z,82.31
2016-04-16T01:31:10.547Z,82.12
2016-04-16T01:31:20.566Z,82.31
2016-04-16T01:31:30.566Z,82.41
2016-04-16T01:31:40.566Z,82.12
2016-04-16T01:31:50.581Z,82.21
2016-04-16T01:32:00.581Z,82.31
2016-04-16T01:32:10.597Z,82.31
2016-04-16T01:32:20.600Z,82.31
2016-04-16T01:32:30.600Z,82.41
2016-04-16T01:32:40.600Z,82.41
2016-04-16T01:32:50.600Z,82.41
2016-04-16T01:33:00.616Z,82.41
2016-04-16T01:33:10.616Z,82.41
2016-04-16T01:33:20.618Z,82.5
2016-04-16T01:33:30.633Z,82.12
2016-04-16T01:33:40.633Z,82.31
2016-04-16T01:33:50.633Z,82.5
2016-04-16T01:34:00.633Z,82.41
2016-04-16T01:34:10.649Z,82.31
2016-04-16T01:34:20.652Z,82.03
2016-04-16T01:34:30.652Z,82.5
2016-04-16T01:34:40.668Z,82.5
2016-04-16T01:34:50.668Z,82.79
2016-04-16T01:35:00.683Z,82.5
2016-04-16T01:35:10.746Z,82.5
2016-04-16T01:35:20.686Z,82.5
2016-04-16T01:35:30.686Z,82.5
2016-04-16T01:35:40.686Z,82.5
2016-04-16T01:35:50.686Z,82.6
2016-04-16T01:36:00.702Z,82.21
2016-04-16T01:36:10.702Z,82.5
2016-04-16T01:36:20.704Z,82.5
2016-04-16T01:36:30.719Z,82.6
2016-04-16T01:36:40.719Z,82.69
2016-04-16T01:36:50.719Z,82.21
2016-04-16T01:37:00.719Z,82.41
2016-04-16T01:37:10.735Z,82.5
2016-04-16T01:37:20.738Z,82.41
2016-04-16T01:37:30.738Z,82.5
2016-04-16T01:37:40.738Z,82.5
2016-04-16T01:37:50.738Z,82.41
2016-04-16T01:38:00.754Z,82.5
2016-04-16T01:38:10.754Z,82.5
2016-04-16T01:38:20.772Z,82.6
2016-04-16T01:38:30.772Z,82.5
2016-04-16T01:38:40.772Z,82.41
2016-04-16T01:38:50.788Z,82.31
2016-04-16T01:39:00.788Z,82.6
2016-04-16T01:39:10.788Z,82.41
2016-04-16T01:39:20.790Z,82.5
2016-04-16T01:39:30.806Z,82.41
2016-04-16T01:39:40.806Z,82.5
2016-04-16T01:39:50.806Z,82.6
2016-04-16T01:40:00.806Z,82.31
2016-04-16T01:40:10.821Z,82.5
2016-04-16T01:40:20.824Z,82.5
2016-04-16T01:40:30.824Z,82.41
2016-04-16T01:40:40.824Z,82.5
2016-04-16T01:40:50.840Z,82.41
2016-04-16T01:41:00.840Z,82.41
2016-04-16T01:41:10.840Z,82.41
2016-04-16T01:41:20.843Z,82.5
2016-04-16T01:41:30.874Z,82.31
2016-04-16T01:41:40.858Z,82.5
2016-04-16T01:41:50.858Z,82.12
2016-04-16T01:42:00.874Z,82.21
2016-04-16T01:42:10.874Z,82.12
2016-04-16T01:42:20.876Z,82.12
2016-04-16T01:42:30.876Z,82.31
2016-04-16T01:42:40.892Z,82.12
2016-04-16T01:42:50.892Z,82.31
2016-04-16T01:43:00.892Z,82.6
2016-04-16T01:43:10.907Z,82.31
2016-04-16T01:43:20.910Z,82.41
2016-04-16T01:43:30.926Z,82.41
2016-04-16T01:43:40.926Z,82.41
2016-04-16T01:43:50.926Z,82.41
2016-04-16T01:44:00.926Z,82.41
2016-04-16T01:44:10.926Z,82.5
2016-04-16T01:44:20.945Z,82.5
2016-04-16T01:44:30.945Z,82.6
2016-04-16T01:44:40.945Z,82.41
2016-04-16T01:44:50.960Z,82.79
2016-04-16T01:45:00.960Z,82.31
2016-04-16T01:45:10.960Z,82.79
2016-04-16T01:45:20.963Z,82.31
2016-04-16T01:45:30.979Z,82.5
2016-04-16T01:45:40.979Z,82.5
2016-04-16T01:45:50.979Z,82.5
2016-04-16T01:46:00.979Z,82.5
2016-04-16T01:46:10.994Z,82.6
2016-04-16T01:46:20.997Z,82.31
2016-04-16T01:46:30.997Z,82.5
2016-04-16T01:46:40.997Z,82.21
2016-04-16T01:46:51.013Z,82.5
2016-04-16T01:47:01.013Z,82.41
2016-04-16T01:47:11.029Z,82.41
2016-04-16T01:47:21.032Z,82.41
2016-04-16T01:47:31.032Z,82.41
2016-04-16T01:47:41.032Z,82.21
2016-04-16T01:47:51.032Z,82.31
2016-04-16T01:48:01.047Z,82.31
2016-04-16T01:48:11.047Z,82.21
2016-04-16T01:48:20.893Z,82.21
2016-04-16T01:48:31.065Z,82.21
2016-04-16T01:48:41.065Z,82.21
2016-04-16T01:48:51.065Z,82.21
2016-04-16T01:49:01.065Z,82.31
2016-04-16T01:49:11.081Z,82.31
2016-04-16T01:49:21.084Z,82.31
2016-04-16T01:49:31.084Z,82.31
2016-04-16T01:49:41.084Z,82.41
2016-04-16T01:49:51.099Z,82.31
2016-04-16T01:50:01.099Z,82.41
2016-04-16T01:50:11.271Z,82.41
2016-04-16T01:50:21.148Z,82.5
2016-04-16T01:50:31.117Z,82.41
2016-04-16T01:50:41.117Z,82.41
2016-04-16T01:50:51.117Z,82.31
2016-04-16T01:51:01.132Z,82.41
2016-04-16T01:51:11.132Z,82.41
2016-04-16T01:51:21.135Z,82.41
2016-04-16T01:51:31.135Z,82.41
2016-04-16T01:51:41.151Z,82.31
2016-04-16T01:51:51.151Z,82.31
2016-04-16T01:52:01.151Z,82.41
2016-04-16T01:52:11.167Z,82.03
2016-04-16T01:52:21.169Z,82.21
2016-04-16T01:52:31.184Z,82.5
2016-04-16T01:52:41.184Z,82.6
2016-04-16T01:52:51.184Z,82.5
2016-04-16T01:53:01.184Z,82.5
2016-04-16T01:53:11.200Z,82.21
2016-04-16T01:53:21.187Z,82.03
2016-04-16T01:53:31.203Z,82.03
2016-04-16T01:53:41.203Z,82.41
2016-04-16T01:53:51.219Z,82.03
2016-04-16T01:54:01.219Z,82.03
2016-04-16T01:54:11.219Z,82.21
2016-04-16T01:54:21.222Z,82.21
2016-04-16T01:54:31.222Z,82.21
2016-04-16T01:54:41.237Z,82.21
2016-04-16T01:54:51.237Z,81.93
2016-04-16T01:55:01.237Z,81.93
2016-04-16T01:55:11.253Z,82.21
2016-04-16T01:55:21.256Z,82.21
2016-04-16T01:55:31.256Z,81.84
2016-04-16T01:55:41.256Z,81.84
2016-04-16T01:55:51.271Z,81.84
2016-04-16T01:56:01.287Z,82.21
2016-04-16T01:56:11.287Z,82.41
2016-04-16T01:56:21.290Z,81.84
2016-04-16T01:56:31.290Z,81.84
2016-04-16T01:56:41.306Z,81.84
2016-04-16T01:56:51.290Z,81.84
2016-04-16T01:57:01.306Z,81.74
2016-04-16T01:57:11.321Z,81.84
2016-04-16T01:57:21.308Z,82.03
2016-04-16T01:57:31.323Z,81.74
2016-04-16T01:57:41.323Z,81.84
2016-04-16T01:57:51.323Z,81.84
2016-04-16T01:58:01.323Z,81.84
2016-04-16T01:58:11.323Z,81.84
2016-04-16T01:58:21.342Z,81.84
2016-04-16T01:58:31.342Z,81.84
2016-04-16T01:58:41.342Z,81.84
2016-04-16T01:58:51.358Z,81.93
2016-04-16T01:59:01.358Z,81.65
2016-04-16T01:59:11.373Z,81.84
2016-04-16T01:59:21.360Z,81.84
2016-04-16T01:59:31.375Z,82.03
2016-04-16T01:59:41.375Z,82.03
2016-04-16T01:59:51.375Z,81.84
2016-04-16T02:00:01.391Z,82.21
2016-04-16T02:00:11.391Z,82.21
2016-04-16T02:00:21.394Z,82.03
2016-04-16T02:00:31.409Z,82.21
2016-04-16T02:00:41.409Z,82.31
2016-04-16T02:00:51.409Z,82.41
2016-04-16T02:01:01.409Z,82.6
2016-04-16T02:01:11.425Z,82.21
2016-04-16T02:01:21.427Z,82.41
2016-04-16T02:01:31.427Z,82.69
2016-04-16T02:01:41.443Z,82.31
2016-04-16T02:01:51.443Z,82.5
2016-04-16T02:02:01.443Z,82.41
2016-04-16T02:02:11.443Z,82.21
2016-04-16T02:02:21.461Z,82.31
2016-04-16T02:02:31.461Z,82.21
2016-04-16T02:02:41.461Z,82.12
2016-04-16T02:02:51.465Z,82.5
2016-04-16T02:03:01.465Z,82.5
2016-04-16T02:03:11.481Z,82.12
2016-04-16T02:03:21.484Z,82.31
2016-04-16T02:03:31.484Z,82.79
2016-04-16T02:03:41.500Z,82.89
2016-04-16T02:03:51.500Z,82.75
2016-04-16T02:04:01.500Z,82.79
2016-04-16T02:04:11.500Z,82.56
2016-04-16T02:04:21.517Z,82.79
2016-04-16T02:04:31.517Z,82.6
2016-04-16T02:04:41.533Z,82.5
2016-04-16T02:04:51.517Z,82.69
2016-04-16T02:05:01.533Z,83.07
2016-04-16T02:05:11.564Z,82.56
2016-04-16T02:05:21.567Z,82.75
2016-04-16T02:05:31.551Z,83.22
2016-04-16T02:05:41.551Z,83.51
2016-04-16T02:05:51.551Z,83.13
2016-04-16T02:06:01.567Z,82.93
2016-04-16T02:06:11.567Z,82.93
2016-04-16T02:06:21.570Z,83.13
2016-04-16T02:06:31.570Z,83.22
2016-04-16T02:06:41.586Z,83.13
2016-04-16T02:06:51.586Z,83.32
2016-04-16T02:07:01.586Z,83.32
2016-04-16T02:07:11.586Z,83.41
2016-04-16T02:07:21.604Z,83.41
2016-04-16T02:07:31.604Z,82.93
2016-04-16T02:07:41.604Z,83.13
2016-04-16T02:07:51.620Z,83.03
2016-04-16T02:08:01.620Z,82.93
2016-04-16T02:08:11.620Z,83.26
2016-04-16T02:08:21.622Z,83.32
2016-04-16T02:08:31.638Z,83.7
2016-04-16T02:08:41.653Z,84.08
2016-04-16T02:08:51.638Z,83.93
2016-04-16T02:09:01.653Z,83.55
2016-04-16T02:09:11.653Z,83.51
2016-04-16T02:09:21.656Z,83.55
2016-04-16T02:09:31.656Z,83.93